sensor_id;sensor_type;location;lat;lon;timestamp;temperature;humidity
42031;DHT22;27709;52.036;5.906;2023-05-17T00:01:32;7.60;99.90
42031;DHT22;27709;52.036;5.906;2023-05-17T00:03:57;7.70;99.90
42031;DHT22;27709;52.036;5.906;2023-05-17T00:06:23;7.70;99.90
42031;DHT22;27709;52.036;5.906;2023-05-17T00:08:48;7.70;99.90
42031;DHT22;27709;52.036;5.906;2023-05-17T00:11:14;7.60;99.90
42031;DHT22;27709;52.036;5.906;2023-05-17T00:13:39;7.60;99.90
42031;DHT22;27709;52.036;5.906;2023-05-17T00:16:06;7.60;99.90
42031;DHT22;27709;52.036;5.906;2023-05-17T00:18:32;7.70;99.90
42031;DHT22;27709;52.036;5.906;2023-05-17T00:20:57;7.80;99.90
42031;DHT22;27709;52.036;5.906;2023-05-17T00:23:23;7.80;99.90
42031;DHT22;27709;52.036;5.906;2023-05-17T00:25:48;7.90;99.90
42031;DHT22;27709;52.036;5.906;2023-05-17T00:28:14;8.00;99.90
42031;DHT22;27709;52.036;5.906;2023-05-17T00:30:39;8.00;99.90
42031;DHT22;27709;52.036;5.906;2023-05-17T00:33:04;8.00;99.90
42031;DHT22;27709;52.036;5.906;2023-05-17T00:35:30;8.00;99.90
42031;DHT22;27709;52.036;5.906;2023-05-17T00:37:55;8.00;99.90
42031;DHT22;27709;52.036;5.906;2023-05-17T00:40:21;8.00;99.90
42031;DHT22;27709;52.036;5.906;2023-05-17T00:42:46;8.00;99.90
42031;DHT22;27709;52.036;5.906;2023-05-17T00:45:14;8.10;99.90
42031;DHT22;27709;52.036;5.906;2023-05-17T00:47:39;8.20;99.90
42031;DHT22;27709;52.036;5.906;2023-05-17T00:50:05;8.20;99.90
42031;DHT22;27709;52.036;5.906;2023-05-17T00:52:31;8.30;99.90
42031;DHT22;27709;52.036;5.906;2023-05-17T00:54:56;8.30;99.90
42031;DHT22;27709;52.036;5.906;2023-05-17T00:57:22;8.30;99.90
42031;DHT22;27709;52.036;5.906;2023-05-17T00:59:47;8.30;99.90
42031;DHT22;27709;52.036;5.906;2023-05-17T01:02:13;8.30;99.90
42031;DHT22;27709;52.036;5.906;2023-05-17T01:04:38;8.30;99.90
42031;DHT22;27709;52.036;5.906;2023-05-17T01:07:05;8.30;99.90
42031;DHT22;27709;52.036;5.906;2023-05-17T01:09:31;8.20;99.90
42031;DHT22;27709;52.036;5.906;2023-05-17T01:17:09;8.10;99.90
42031;DHT22;27709;52.036;5.906;2023-05-17T01:19:56;8.10;99.90
42031;DHT22;27709;52.036;5.906;2023-05-17T01:25:00;8.10;99.90
42031;DHT22;27709;52.036;5.906;2023-05-17T01:27:28;8.20;99.90
42031;DHT22;27709;52.036;5.906;2023-05-17T01:29:55;8.20;99.90
42031;DHT22;27709;52.036;5.906;2023-05-17T01:32:21;8.20;99.90
42031;DHT22;27709;52.036;5.906;2023-05-17T01:34:46;8.30;99.90
42031;DHT22;27709;52.036;5.906;2023-05-17T01:37:12;8.30;99.90
42031;DHT22;27709;52.036;5.906;2023-05-17T01:39:37;8.30;99.90
42031;DHT22;27709;52.036;5.906;2023-05-17T01:42:08;8.40;99.90
42031;DHT22;27709;52.036;5.906;2023-05-17T01:44:37;8.50;99.90
42031;DHT22;27709;52.036;5.906;2023-05-17T01:47:08;8.50;99.90
42031;DHT22;27709;52.036;5.906;2023-05-17T01:49:36;8.40;99.90
42031;DHT22;27709;52.036;5.906;2023-05-17T01:52:11;8.30;99.90
42031;DHT22;27709;52.036;5.906;2023-05-17T01:54:50;8.20;99.90
42031;DHT22;27709;52.036;5.906;2023-05-17T01:57:19;8.10;99.90
42031;DHT22;27709;52.036;5.906;2023-05-17T01:59:44;7.80;99.90
42031;DHT22;27709;52.036;5.906;2023-05-17T02:02:10;7.70;99.90
42031;DHT22;27709;52.036;5.906;2023-05-17T02:04:36;7.70;99.90
42031;DHT22;27709;52.036;5.906;2023-05-17T02:07:02;7.80;99.90
42031;DHT22;27709;52.036;5.906;2023-05-17T02:09:27;7.80;99.90
42031;DHT22;27709;52.036;5.906;2023-05-17T02:11:53;7.90;99.90
42031;DHT22;27709;52.036;5.906;2023-05-17T02:14:18;7.90;99.90
42031;DHT22;27709;52.036;5.906;2023-05-17T02:16:44;8.00;99.90
42031;DHT22;27709;52.036;5.906;2023-05-17T02:19:09;8.00;99.90
42031;DHT22;27709;52.036;5.906;2023-05-17T02:21:37;8.00;99.90
42031;DHT22;27709;52.036;5.906;2023-05-17T02:24:03;8.00;99.90
42031;DHT22;27709;52.036;5.906;2023-05-17T02:26:28;7.90;99.90
42031;DHT22;27709;52.036;5.906;2023-05-17T02:28:53;8.00;99.90
42031;DHT22;27709;52.036;5.906;2023-05-17T02:31:19;7.90;99.90
42031;DHT22;27709;52.036;5.906;2023-05-17T02:33:45;7.80;99.90
42031;DHT22;27709;52.036;5.906;2023-05-17T02:36:10;7.80;99.90
42031;DHT22;27709;52.036;5.906;2023-05-17T02:38:35;7.90;99.90
42031;DHT22;27709;52.036;5.906;2023-05-17T02:41:01;8.00;99.90
42031;DHT22;27709;52.036;5.906;2023-05-17T02:43:27;8.10;99.90
42031;DHT22;27709;52.036;5.906;2023-05-17T02:45:53;8.20;99.90
42031;DHT22;27709;52.036;5.906;2023-05-17T02:48:18;8.20;99.90
42031;DHT22;27709;52.036;5.906;2023-05-17T02:50:44;8.10;99.90
42031;DHT22;27709;52.036;5.906;2023-05-17T02:53:09;8.10;99.90
42031;DHT22;27709;52.036;5.906;2023-05-17T02:55:35;8.20;99.90
42031;DHT22;27709;52.036;5.906;2023-05-17T02:58:01;8.30;99.90
42031;DHT22;27709;52.036;5.906;2023-05-17T03:00:26;8.30;99.90
42031;DHT22;27709;52.036;5.906;2023-05-17T03:02:51;8.40;99.90
42031;DHT22;27709;52.036;5.906;2023-05-17T03:05:17;8.50;99.90
42031;DHT22;27709;52.036;5.906;2023-05-17T03:07:42;8.50;99.90
42031;DHT22;27709;52.036;5.906;2023-05-17T03:10:08;8.60;99.90
42031;DHT22;27709;52.036;5.906;2023-05-17T03:12:33;8.60;99.90
42031;DHT22;27709;52.036;5.906;2023-05-17T03:14:59;8.70;99.90
42031;DHT22;27709;52.036;5.906;2023-05-17T03:17:24;8.60;99.90
42031;DHT22;27709;52.036;5.906;2023-05-17T03:19:50;8.70;99.90
42031;DHT22;27709;52.036;5.906;2023-05-17T03:22:16;8.70;99.90
42031;DHT22;27709;52.036;5.906;2023-05-17T03:24:41;8.70;99.90
42031;DHT22;27709;52.036;5.906;2023-05-17T03:27:06;8.70;99.90
42031;DHT22;27709;52.036;5.906;2023-05-17T03:29:32;8.70;99.90
42031;DHT22;27709;52.036;5.906;2023-05-17T03:31:57;8.60;99.90
42031;DHT22;27709;52.036;5.906;2023-05-17T03:34:23;8.60;99.90
42031;DHT22;27709;52.036;5.906;2023-05-17T03:36:48;8.60;99.90
42031;DHT22;27709;52.036;5.906;2023-05-17T03:39:14;8.60;99.90
42031;DHT22;27709;52.036;5.906;2023-05-17T03:41:39;8.70;99.90
42031;DHT22;27709;52.036;5.906;2023-05-17T03:44:06;8.60;99.90
42031;DHT22;27709;52.036;5.906;2023-05-17T03:46:31;8.60;99.90
42031;DHT22;27709;52.036;5.906;2023-05-17T03:48:57;8.60;99.90
42031;DHT22;27709;52.036;5.906;2023-05-17T03:51:22;8.50;99.90
42031;DHT22;27709;52.036;5.906;2023-05-17T03:53:49;8.50;99.90
42031;DHT22;27709;52.036;5.906;2023-05-17T03:56:15;8.50;99.90
42031;DHT22;27709;52.036;5.906;2023-05-17T03:58:42;8.50;99.90
42031;DHT22;27709;52.036;5.906;2023-05-17T04:01:07;8.50;99.90
42031;DHT22;27709;52.036;5.906;2023-05-17T04:03:33;8.50;99.90
42031;DHT22;27709;52.036;5.906;2023-05-17T04:06:05;8.50;99.90
42031;DHT22;27709;52.036;5.906;2023-05-17T04:08:31;8.40;99.90
42031;DHT22;27709;52.036;5.906;2023-05-17T04:10:57;8.40;99.90
42031;DHT22;27709;52.036;5.906;2023-05-17T04:13:22;8.40;99.90
42031;DHT22;27709;52.036;5.906;2023-05-17T04:15:48;8.40;99.90
42031;DHT22;27709;52.036;5.906;2023-05-17T04:18:13;8.40;99.90
42031;DHT22;27709;52.036;5.906;2023-05-17T04:20:39;8.40;99.90
42031;DHT22;27709;52.036;5.906;2023-05-17T04:23:04;8.30;99.90
42031;DHT22;27709;52.036;5.906;2023-05-17T04:25:29;8.30;99.90
42031;DHT22;27709;52.036;5.906;2023-05-17T04:27:55;8.30;99.90
42031;DHT22;27709;52.036;5.906;2023-05-17T04:30:21;8.40;99.90
42031;DHT22;27709;52.036;5.906;2023-05-17T04:32:48;8.30;99.90
42031;DHT22;27709;52.036;5.906;2023-05-17T04:35:14;8.40;99.90
42031;DHT22;27709;52.036;5.906;2023-05-17T04:37:49;8.40;99.90
42031;DHT22;27709;52.036;5.906;2023-05-17T04:40:14;8.40;99.90
42031;DHT22;27709;52.036;5.906;2023-05-17T04:42:40;8.40;99.90
42031;DHT22;27709;52.036;5.906;2023-05-17T04:45:11;8.40;99.90
42031;DHT22;27709;52.036;5.906;2023-05-17T04:47:37;8.40;99.90
42031;DHT22;27709;52.036;5.906;2023-05-17T04:50:02;8.50;99.90
42031;DHT22;27709;52.036;5.906;2023-05-17T04:52:29;8.60;99.90
42031;DHT22;27709;52.036;5.906;2023-05-17T04:54:54;8.70;99.90
42031;DHT22;27709;52.036;5.906;2023-05-17T04:57:20;8.70;99.90
42031;DHT22;27709;52.036;5.906;2023-05-17T04:59:45;8.70;99.90
42031;DHT22;27709;52.036;5.906;2023-05-17T05:02:11;8.80;99.90
42031;DHT22;27709;52.036;5.906;2023-05-17T05:04:39;8.80;99.90
42031;DHT22;27709;52.036;5.906;2023-05-17T05:07:05;8.90;99.90
42031;DHT22;27709;52.036;5.906;2023-05-17T05:09:30;8.90;99.90
42031;DHT22;27709;52.036;5.906;2023-05-17T05:11:56;9.00;99.90
42031;DHT22;27709;52.036;5.906;2023-05-17T05:14:21;9.10;99.90
42031;DHT22;27709;52.036;5.906;2023-05-17T05:16:47;9.10;99.90
42031;DHT22;27709;52.036;5.906;2023-05-17T05:19:12;9.20;99.90
42031;DHT22;27709;52.036;5.906;2023-05-17T05:21:43;9.20;99.90
42031;DHT22;27709;52.036;5.906;2023-05-17T05:24:08;9.30;99.90
42031;DHT22;27709;52.036;5.906;2023-05-17T05:26:42;9.50;99.90
42031;DHT22;27709;52.036;5.906;2023-05-17T05:29:20;9.60;99.90
42031;DHT22;27709;52.036;5.906;2023-05-17T05:31:45;9.70;99.90
42031;DHT22;27709;52.036;5.906;2023-05-17T05:34:13;9.90;99.90
42031;DHT22;27709;52.036;5.906;2023-05-17T05:36:39;10.10;99.90
42031;DHT22;27709;52.036;5.906;2023-05-17T05:39:04;10.30;99.90
42031;DHT22;27709;52.036;5.906;2023-05-17T05:41:32;10.40;99.90
42031;DHT22;27709;52.036;5.906;2023-05-17T05:43:58;10.40;99.90
42031;DHT22;27709;52.036;5.906;2023-05-17T05:46:23;10.30;99.90
42031;DHT22;27709;52.036;5.906;2023-05-17T05:48:49;10.20;99.90
42031;DHT22;27709;52.036;5.906;2023-05-17T05:51:17;10.20;99.90
42031;DHT22;27709;52.036;5.906;2023-05-17T05:53:55;10.20;99.90
42031;DHT22;27709;52.036;5.906;2023-05-17T05:56:41;10.20;99.90
42031;DHT22;27709;52.036;5.906;2023-05-17T05:59:06;10.20;99.90
42031;DHT22;27709;52.036;5.906;2023-05-17T06:01:47;10.30;99.90
42031;DHT22;27709;52.036;5.906;2023-05-17T06:04:13;10.60;99.90
42031;DHT22;27709;52.036;5.906;2023-05-17T06:06:38;10.80;99.90
42031;DHT22;27709;52.036;5.906;2023-05-17T06:09:04;11.00;99.90
42031;DHT22;27709;52.036;5.906;2023-05-17T06:11:31;11.30;99.90
42031;DHT22;27709;52.036;5.906;2023-05-17T06:13:57;11.90;99.90
42031;DHT22;27709;52.036;5.906;2023-05-17T06:16:22;12.40;99.90
42031;DHT22;27709;52.036;5.906;2023-05-17T06:18:48;12.50;99.90
42031;DHT22;27709;52.036;5.906;2023-05-17T06:21:29;12.50;99.90
42031;DHT22;27709;52.036;5.906;2023-05-17T06:23:55;12.30;99.90
42031;DHT22;27709;52.036;5.906;2023-05-17T06:26:21;12.20;99.90
42031;DHT22;27709;52.036;5.906;2023-05-17T06:28:47;12.10;99.90
42031;DHT22;27709;52.036;5.906;2023-05-17T06:31:12;12.00;99.90
42031;DHT22;27709;52.036;5.906;2023-05-17T06:33:38;12.10;99.90
42031;DHT22;27709;52.036;5.906;2023-05-17T06:36:03;12.30;99.90
42031;DHT22;27709;52.036;5.906;2023-05-17T06:38:29;12.40;99.90
42031;DHT22;27709;52.036;5.906;2023-05-17T06:40:54;12.50;99.90
42031;DHT22;27709;52.036;5.906;2023-05-17T06:43:20;12.70;99.90
42031;DHT22;27709;52.036;5.906;2023-05-17T06:45:46;13.30;99.90
42031;DHT22;27709;52.036;5.906;2023-05-17T06:48:13;13.70;99.90
42031;DHT22;27709;52.036;5.906;2023-05-17T06:50:39;13.90;99.90
42031;DHT22;27709;52.036;5.906;2023-05-17T06:53:04;13.90;99.90
42031;DHT22;27709;52.036;5.906;2023-05-17T06:55:30;13.90;99.90
42031;DHT22;27709;52.036;5.906;2023-05-17T06:57:56;14.10;99.90
42031;DHT22;27709;52.036;5.906;2023-05-17T07:00:21;14.80;99.90
42031;DHT22;27709;52.036;5.906;2023-05-17T07:02:47;15.50;99.90
42031;DHT22;27709;52.036;5.906;2023-05-17T07:05:12;15.90;99.90
42031;DHT22;27709;52.036;5.906;2023-05-17T07:07:38;15.90;99.90
42031;DHT22;27709;52.036;5.906;2023-05-17T07:10:04;16.10;99.70
42031;DHT22;27709;52.036;5.906;2023-05-17T07:12:30;16.50;99.90
42031;DHT22;27709;52.036;5.906;2023-05-17T07:14:55;16.70;99.50
42031;DHT22;27709;52.036;5.906;2023-05-17T07:17:30;16.70;99.90
42031;DHT22;27709;52.036;5.906;2023-05-17T07:20:05;16.80;99.60
42031;DHT22;27709;52.036;5.906;2023-05-17T07:22:30;16.60;98.80
42031;DHT22;27709;52.036;5.906;2023-05-17T07:24:57;16.20;98.80
42031;DHT22;27709;52.036;5.906;2023-05-17T07:27:24;16.40;99.90
42031;DHT22;27709;52.036;5.906;2023-05-17T07:29:50;17.00;98.70
42031;DHT22;27709;52.036;5.906;2023-05-17T07:32:15;17.90;98.20
42031;DHT22;27709;52.036;5.906;2023-05-17T07:34:42;18.60;98.20
42031;DHT22;27709;52.036;5.906;2023-05-17T07:37:07;19.40;95.80
42031;DHT22;27709;52.036;5.906;2023-05-17T07:39:33;19.20;93.90
42031;DHT22;27709;52.036;5.906;2023-05-17T07:41:58;18.70;93.40
42031;DHT22;27709;52.036;5.906;2023-05-17T07:44:25;18.00;93.60
42031;DHT22;27709;52.036;5.906;2023-05-17T07:46:50;17.50;96.00
42031;DHT22;27709;52.036;5.906;2023-05-17T07:49:16;17.70;96.90
42031;DHT22;27709;52.036;5.906;2023-05-17T07:51:42;18.20;95.80
42031;DHT22;27709;52.036;5.906;2023-05-17T07:54:12;18.00;95.10
42031;DHT22;27709;52.036;5.906;2023-05-17T07:56:46;17.60;95.10
42031;DHT22;27709;52.036;5.906;2023-05-17T07:59:12;17.50;95.30
42031;DHT22;27709;52.036;5.906;2023-05-17T08:01:41;17.20;95.40
42031;DHT22;27709;52.036;5.906;2023-05-17T08:04:08;17.10;96.40
42031;DHT22;27709;52.036;5.906;2023-05-17T08:09:35;16.80;95.90
42031;DHT22;27709;52.036;5.906;2023-05-17T08:12:00;16.60;96.40
42031;DHT22;27709;52.036;5.906;2023-05-17T08:14:27;16.50;95.50
42031;DHT22;27709;52.036;5.906;2023-05-17T08:16:54;16.30;95.70
42031;DHT22;27709;52.036;5.906;2023-05-17T08:19:20;16.10;95.70
42031;DHT22;27709;52.036;5.906;2023-05-17T08:21:46;16.00;96.10
42031;DHT22;27709;52.036;5.906;2023-05-17T08:24:20;16.40;96.10
42031;DHT22;27709;52.036;5.906;2023-05-17T08:26:45;16.60;95.40
42031;DHT22;27709;52.036;5.906;2023-05-17T08:29:11;16.60;92.80
42031;DHT22;27709;52.036;5.906;2023-05-17T08:31:36;16.50;94.60
42031;DHT22;27709;52.036;5.906;2023-05-17T08:36:32;16.40;94.30
42031;DHT22;27709;52.036;5.906;2023-05-17T08:38:57;16.40;95.30
42031;DHT22;27709;52.036;5.906;2023-05-17T08:41:26;16.90;95.40
42031;DHT22;27709;52.036;5.906;2023-05-17T08:43:51;17.70;93.50
42031;DHT22;27709;52.036;5.906;2023-05-17T08:46:18;18.00;93.10
42031;DHT22;27709;52.036;5.906;2023-05-17T08:48:47;18.00;90.80
42031;DHT22;27709;52.036;5.906;2023-05-17T08:51:20;17.80;90.40
42031;DHT22;27709;52.036;5.906;2023-05-17T08:53:49;17.60;91.20
42031;DHT22;27709;52.036;5.906;2023-05-17T08:56:15;17.30;92.10
42031;DHT22;27709;52.036;5.906;2023-05-17T08:58:41;17.50;92.90
42031;DHT22;27709;52.036;5.906;2023-05-17T09:01:07;18.20;91.60
42031;DHT22;27709;52.036;5.906;2023-05-17T09:03:34;18.80;91.70
42031;DHT22;27709;52.036;5.906;2023-05-17T09:06:00;18.90;90.40
42031;DHT22;27709;52.036;5.906;2023-05-17T09:08:26;18.70;89.50
42031;DHT22;27709;52.036;5.906;2023-05-17T09:10:52;18.30;89.50
42031;DHT22;27709;52.036;5.906;2023-05-17T09:13:18;18.00;90.90
42031;DHT22;27709;52.036;5.906;2023-05-17T09:15:46;17.70;90.30
42031;DHT22;27709;52.036;5.906;2023-05-17T09:18:11;17.60;90.90
42031;DHT22;27709;52.036;5.906;2023-05-17T09:20:37;18.00;90.70
42031;DHT22;27709;52.036;5.906;2023-05-17T09:23:08;18.70;90.40
42031;DHT22;27709;52.036;5.906;2023-05-17T09:25:35;19.10;86.50
42031;DHT22;27709;52.036;5.906;2023-05-17T09:28:05;19.60;83.80
42031;DHT22;27709;52.036;5.906;2023-05-17T09:30:34;20.10;81.90
42031;DHT22;27709;52.036;5.906;2023-05-17T09:33:05;20.50;82.40
42031;DHT22;27709;52.036;5.906;2023-05-17T09:35:33;20.90;81.50
42031;DHT22;27709;52.036;5.906;2023-05-17T09:38:14;21.00;79.10
42031;DHT22;27709;52.036;5.906;2023-05-17T09:40:41;20.70;77.90
42031;DHT22;27709;52.036;5.906;2023-05-17T09:43:23;20.10;79.30
42031;DHT22;27709;52.036;5.906;2023-05-17T09:45:56;20.00;81.70
42031;DHT22;27709;52.036;5.906;2023-05-17T09:48:27;20.20;81.30
42031;DHT22;27709;52.036;5.906;2023-05-17T09:50:52;20.50;76.00
42031;DHT22;27709;52.036;5.906;2023-05-17T09:53:31;20.80;75.40
42031;DHT22;27709;52.036;5.906;2023-05-17T09:55:57;21.00;74.90
42031;DHT22;27709;52.036;5.906;2023-05-17T09:58:25;21.20;76.00
42031;DHT22;27709;52.036;5.906;2023-05-17T10:00:51;21.50;75.10
42031;DHT22;27709;52.036;5.906;2023-05-17T10:03:19;21.70;75.80
42031;DHT22;27709;52.036;5.906;2023-05-17T10:05:45;21.90;70.70
42031;DHT22;27709;52.036;5.906;2023-05-17T10:08:14;21.80;72.70
42031;DHT22;27709;52.036;5.906;2023-05-17T10:10:41;21.60;72.30
42031;DHT22;27709;52.036;5.906;2023-05-17T10:13:09;21.60;71.70
42031;DHT22;27709;52.036;5.906;2023-05-17T10:15:40;21.60;71.00
42031;DHT22;27709;52.036;5.906;2023-05-17T10:18:07;21.60;72.60
42031;DHT22;27709;52.036;5.906;2023-05-17T10:20:42;21.20;67.00
42031;DHT22;27709;52.036;5.906;2023-05-17T10:23:08;20.60;68.60
42031;DHT22;27709;52.036;5.906;2023-05-17T10:25:36;20.40;72.60
42031;DHT22;27709;52.036;5.906;2023-05-17T10:28:02;20.50;71.30
42031;DHT22;27709;52.036;5.906;2023-05-17T10:33:27;20.60;70.60
42031;DHT22;27709;52.036;5.906;2023-05-17T10:35:53;20.60;72.70
42031;DHT22;27709;52.036;5.906;2023-05-17T10:38:25;20.60;70.70
42031;DHT22;27709;52.036;5.906;2023-05-17T10:40:51;20.40;70.60
42031;DHT22;27709;52.036;5.906;2023-05-17T10:43:17;20.30;70.30
42031;DHT22;27709;52.036;5.906;2023-05-17T10:45:43;20.30;69.70
42031;DHT22;27709;52.036;5.906;2023-05-17T10:48:14;20.30;68.40
42031;DHT22;27709;52.036;5.906;2023-05-17T10:50:46;20.40;67.60
42031;DHT22;27709;52.036;5.906;2023-05-17T10:53:13;20.30;70.50
42031;DHT22;27709;52.036;5.906;2023-05-17T10:56:00;20.00;69.60
42031;DHT22;27709;52.036;5.906;2023-05-17T10:58:26;19.80;71.00
42031;DHT22;27709;52.036;5.906;2023-05-17T11:00:52;19.80;69.90
42031;DHT22;27709;52.036;5.906;2023-05-17T11:08:34;20.10;68.00
42031;DHT22;27709;52.036;5.906;2023-05-17T11:11:06;20.10;66.20
42031;DHT22;27709;52.036;5.906;2023-05-17T11:13:43;20.20;67.50
42031;DHT22;27709;52.036;5.906;2023-05-17T11:16:13;20.20;69.90
42031;DHT22;27709;52.036;5.906;2023-05-17T11:18:45;20.20;67.80
42031;DHT22;27709;52.036;5.906;2023-05-17T11:21:12;20.30;68.20
42031;DHT22;27709;52.036;5.906;2023-05-17T11:23:37;20.30;68.50
42031;DHT22;27709;52.036;5.906;2023-05-17T11:28:41;20.00;69.60
42031;DHT22;27709;52.036;5.906;2023-05-17T11:31:07;20.00;68.40
42031;DHT22;27709;52.036;5.906;2023-05-17T11:33:42;20.10;67.90
42031;DHT22;27709;52.036;5.906;2023-05-17T11:36:18;20.20;66.80
42031;DHT22;27709;52.036;5.906;2023-05-17T11:38:48;20.40;68.20
42031;DHT22;27709;52.036;5.906;2023-05-17T11:41:15;20.40;66.50
42031;DHT22;27709;52.036;5.906;2023-05-17T11:43:43;20.60;66.90
42031;DHT22;27709;52.036;5.906;2023-05-17T11:46:10;20.60;63.50
42031;DHT22;27709;52.036;5.906;2023-05-17T11:48:42;20.50;64.30
42031;DHT22;27709;52.036;5.906;2023-05-17T11:51:09;20.10;64.40
42031;DHT22;27709;52.036;5.906;2023-05-17T11:53:37;19.70;64.40
42031;DHT22;27709;52.036;5.906;2023-05-17T11:56:04;19.40;67.20
42031;DHT22;27709;52.036;5.906;2023-05-17T11:58:29;19.30;68.10
42031;DHT22;27709;52.036;5.906;2023-05-17T12:00:56;19.50;70.20
42031;DHT22;27709;52.036;5.906;2023-05-17T12:03:26;19.80;69.70
42031;DHT22;27709;52.036;5.906;2023-05-17T12:08:31;19.90;67.50
42031;DHT22;27709;52.036;5.906;2023-05-17T12:10:58;19.90;68.30
42031;DHT22;27709;52.036;5.906;2023-05-17T12:13:26;19.70;67.50
42031;DHT22;27709;52.036;5.906;2023-05-17T12:15:54;19.40;66.20
42031;DHT22;27709;52.036;5.906;2023-05-17T12:18:20;19.30;67.20
42031;DHT22;27709;52.036;5.906;2023-05-17T12:20:52;19.50;67.70
42031;DHT22;27709;52.036;5.906;2023-05-17T12:23:24;19.40;65.30
42031;DHT22;27709;52.036;5.906;2023-05-17T12:25:50;19.20;66.00
42031;DHT22;27709;52.036;5.906;2023-05-17T12:28:15;19.10;67.30
42031;DHT22;27709;52.036;5.906;2023-05-17T12:30:43;19.30;68.70
42031;DHT22;27709;52.036;5.906;2023-05-17T12:33:10;19.40;66.70
42031;DHT22;27709;52.036;5.906;2023-05-17T12:35:39;19.40;64.90
42031;DHT22;27709;52.036;5.906;2023-05-17T12:38:04;19.30;64.20
42031;DHT22;27709;52.036;5.906;2023-05-17T12:40:35;19.30;67.80
42031;DHT22;27709;52.036;5.906;2023-05-17T12:43:01;19.50;66.90
42031;DHT22;27709;52.036;5.906;2023-05-17T12:45:30;19.50;66.10
42031;DHT22;27709;52.036;5.906;2023-05-17T12:47:58;19.50;65.60
42031;DHT22;27709;52.036;5.906;2023-05-17T12:50:27;19.30;66.40
42031;DHT22;27709;52.036;5.906;2023-05-17T12:52:54;19.30;66.50
42031;DHT22;27709;52.036;5.906;2023-05-17T12:55:20;19.50;68.20
42031;DHT22;27709;52.036;5.906;2023-05-17T12:57:50;19.70;65.50
42031;DHT22;27709;52.036;5.906;2023-05-17T13:00:16;19.70;65.40
42031;DHT22;27709;52.036;5.906;2023-05-17T13:02:41;19.50;65.40
42031;DHT22;27709;52.036;5.906;2023-05-17T13:05:15;19.20;65.80
42031;DHT22;27709;52.036;5.906;2023-05-17T13:07:40;19.10;66.70
42031;DHT22;27709;52.036;5.906;2023-05-17T13:10:24;19.20;67.10
42031;DHT22;27709;52.036;5.906;2023-05-17T13:13:00;19.20;65.70
42031;DHT22;27709;52.036;5.906;2023-05-17T13:15:31;19.10;65.40
42031;DHT22;27709;52.036;5.906;2023-05-17T13:17:57;19.10;67.10
42031;DHT22;27709;52.036;5.906;2023-05-17T13:20:25;19.30;68.00
42031;DHT22;27709;52.036;5.906;2023-05-17T13:22:50;19.40;66.50
42031;DHT22;27709;52.036;5.906;2023-05-17T13:25:16;19.40;64.70
42031;DHT22;27709;52.036;5.906;2023-05-17T13:27:44;19.40;64.30
42031;DHT22;27709;52.036;5.906;2023-05-17T13:30:20;19.30;65.10
42031;DHT22;27709;52.036;5.906;2023-05-17T13:33:10;19.20;66.80
42031;DHT22;27709;52.036;5.906;2023-05-17T13:35:35;19.00;64.40
42031;DHT22;27709;52.036;5.906;2023-05-17T13:40:47;18.50;66.20
42031;DHT22;27709;52.036;5.906;2023-05-17T13:43:17;18.50;67.10
42031;DHT22;27709;52.036;5.906;2023-05-17T13:45:45;18.50;68.40
42031;DHT22;27709;52.036;5.906;2023-05-17T13:48:20;18.60;69.50
42031;DHT22;27709;52.036;5.906;2023-05-17T13:50:45;18.90;70.60
42031;DHT22;27709;52.036;5.906;2023-05-17T13:53:11;19.10;68.20
42031;DHT22;27709;52.036;5.906;2023-05-17T13:55:37;19.20;68.40
42031;DHT22;27709;52.036;5.906;2023-05-17T13:58:09;19.20;68.10
42031;DHT22;27709;52.036;5.906;2023-05-17T14:00:40;19.10;68.70
42031;DHT22;27709;52.036;5.906;2023-05-17T14:03:13;19.00;67.40
42031;DHT22;27709;52.036;5.906;2023-05-17T14:05:41;19.00;67.20
42031;DHT22;27709;52.036;5.906;2023-05-17T14:08:07;18.90;66.60
42031;DHT22;27709;52.036;5.906;2023-05-17T14:10:37;18.80;68.80
42031;DHT22;27709;52.036;5.906;2023-05-17T14:13:07;18.70;67.00
42031;DHT22;27709;52.036;5.906;2023-05-17T14:15:33;18.60;67.00
42031;DHT22;27709;52.036;5.906;2023-05-17T14:18:06;18.40;67.30
42031;DHT22;27709;52.036;5.906;2023-05-17T14:20:33;18.40;67.60
42031;DHT22;27709;52.036;5.906;2023-05-17T14:22:59;18.40;68.80
42031;DHT22;27709;52.036;5.906;2023-05-17T14:25:25;18.40;69.40
42031;DHT22;27709;52.036;5.906;2023-05-17T14:27:52;18.50;69.10
42031;DHT22;27709;52.036;5.906;2023-05-17T14:30:20;18.50;68.10
42031;DHT22;27709;52.036;5.906;2023-05-17T14:32:51;18.40;69.10
42031;DHT22;27709;52.036;5.906;2023-05-17T14:35:16;18.30;68.80
42031;DHT22;27709;52.036;5.906;2023-05-17T14:37:42;18.30;70.00
42031;DHT22;27709;52.036;5.906;2023-05-17T14:40:08;18.30;71.20
42031;DHT22;27709;52.036;5.906;2023-05-17T14:42:33;18.40;70.90
42031;DHT22;27709;52.036;5.906;2023-05-17T14:44:59;18.40;69.80
42031;DHT22;27709;52.036;5.906;2023-05-17T14:47:25;18.50;69.60
42031;DHT22;27709;52.036;5.906;2023-05-17T14:49:50;18.50;68.80
42031;DHT22;27709;52.036;5.906;2023-05-17T14:52:16;18.60;67.10
42031;DHT22;27709;52.036;5.906;2023-05-17T14:54:41;18.70;67.90
42031;DHT22;27709;52.036;5.906;2023-05-17T14:57:08;18.80;68.80
42031;DHT22;27709;52.036;5.906;2023-05-17T14:59:35;18.80;66.90
42031;DHT22;27709;52.036;5.906;2023-05-17T15:02:03;18.70;66.00
42031;DHT22;27709;52.036;5.906;2023-05-17T15:04:29;18.60;67.50
42031;DHT22;27709;52.036;5.906;2023-05-17T15:06:56;18.50;67.80
42031;DHT22;27709;52.036;5.906;2023-05-17T15:09:26;18.60;67.90
42031;DHT22;27709;52.036;5.906;2023-05-17T15:11:56;18.70;68.70
42031;DHT22;27709;52.036;5.906;2023-05-17T15:14:22;18.70;67.60
42031;DHT22;27709;52.036;5.906;2023-05-17T15:16:49;18.80;67.30
42031;DHT22;27709;52.036;5.906;2023-05-17T15:19:15;18.80;68.30
42031;DHT22;27709;52.036;5.906;2023-05-17T15:21:53;18.80;66.50
42031;DHT22;27709;52.036;5.906;2023-05-17T15:26:54;18.70;66.80
42031;DHT22;27709;52.036;5.906;2023-05-17T15:29:24;18.60;66.10
42031;DHT22;27709;52.036;5.906;2023-05-17T15:31:54;18.50;66.80
42031;DHT22;27709;52.036;5.906;2023-05-17T15:39:52;18.20;64.40
42031;DHT22;27709;52.036;5.906;2023-05-17T15:42:31;18.00;65.00
42031;DHT22;27709;52.036;5.906;2023-05-17T15:44:58;17.90;67.00
42031;DHT22;27709;52.036;5.906;2023-05-17T15:47:27;17.70;67.00
42031;DHT22;27709;52.036;5.906;2023-05-17T15:49:53;17.70;66.90
42031;DHT22;27709;52.036;5.906;2023-05-17T15:52:20;17.60;67.10
42031;DHT22;27709;52.036;5.906;2023-05-17T15:54:54;17.40;66.50
42031;DHT22;27709;52.036;5.906;2023-05-17T15:57:38;17.10;67.10
42031;DHT22;27709;52.036;5.906;2023-05-17T16:00:13;16.90;68.00
42031;DHT22;27709;52.036;5.906;2023-05-17T16:02:38;16.80;68.10
42031;DHT22;27709;52.036;5.906;2023-05-17T16:05:08;16.60;68.60
42031;DHT22;27709;52.036;5.906;2023-05-17T16:07:39;16.50;69.30
42031;DHT22;27709;52.036;5.906;2023-05-17T16:10:05;16.50;69.80
42031;DHT22;27709;52.036;5.906;2023-05-17T16:12:31;16.40;69.20
42031;DHT22;27709;52.036;5.906;2023-05-17T16:14:56;16.40;69.40